CMA CGM Aristote — MRPN4 — position and weather

sailwx.info

Track history (hours):
 
Tides and Currents Weather Stations Pressure Air Temp Water Temp Dewpoint Dewpoint Depression Visibility Wind Speed Wind Dir Waves Ship Positions

CMA CGM Aristote

Last reported at 2015-Feb-27 11:33 UTC. Time now 2015-Feb-27 22:45 UTC.
Position N 48°52' W 005°27'.

Length 170 m; draft 8.1 m.

Type: Ship (hazmat cat A). MMSI: 235054581.

Date/timePositionNaut miles runAvg speedWind from/ knotsBaromVisibWave heightAir tempDewpointWater temp
2015-Feb-27 11:33N 48°52' W 005°27'63215.0
2015-Feb-25 17:31N 38°50' W 009°51'1515.3
2015-Feb-25 16:33N 38°35' W 009°50'1514.8
2015-Feb-25 15:33N 38°21' W 009°45'1514.9
2015-Feb-25 14:33N 38°06' W 009°41'1515.0
2015-Feb-25 13:33N 37°52' W 009°36'1515.0
2015-Feb-25 12:33N 37°37' W 009°32'21413.3
2015-Feb-24 20:24N 35°57' W 005°36'1214.3
2015-Feb-24 19:33N 36°00' W 005°21'1212.1
2015-Feb-24 18:33N 36°02' W 005°06'9 0.6
2015-Feb-24 03:07N 36°06' W 005°17'611.1
2015-Feb-24 02:33N 36°08' W 005°24'1 1.0
2015-Feb-24 01:26N 36°08' W 005°25'0 0.0
2015-Feb-24 00:32N 36°08' W 005°25'0 0.0
2015-Feb-23 23:32N 36°08' W 005°25'0 0.0
2015-Feb-23 22:32N 36°08' W 005°25'0 0.0
2015-Feb-23 21:23N 36°08' W 005°25'0 0.0
2015-Feb-23 20:29N 36°08' W 005°25'0 0.0
2015-Feb-23 19:32N 36°08' W 005°25'0 0.0
2015-Feb-23 18:32N 36°08' W 005°25'0 0.0
2015-Feb-23 17:29N 36°08' W 005°25'0 0.0
2015-Feb-23 16:32N 36°08' W 005°25'1 0.6
2015-Feb-23 15:33N 36°08' W 005°25'4 4.3
2015-Feb-23 14:33N 36°05' W 005°22'1010.1
2015-Feb-23 13:34N 35°57' W 005°30'  
Track history (hours):
 
Tides and Currents Weather Stations Pressure Air Temp Water Temp Dewpoint Dewpoint Depression Visibility Wind Speed Wind Dir Waves Ship Positions

CMA CGM Aristote

Last reported at 2015-Feb-27 11:33 UTC. Time now 2015-Feb-27 22:45 UTC.
Position N 48°52' W 005°27'.

Length 170 m; draft 8.1 m.

Type: Ship (hazmat cat A). MMSI: 235054581.

Date/timePositionNaut miles runAvg speedWind from/ knotsBaromVisibWave heightAir tempDewpointWater temp
2015-Feb-27 11:33N 48°52' W 005°27'63215.0
2015-Feb-25 17:31N 38°50' W 009°51'1515.3
2015-Feb-25 16:33N 38°35' W 009°50'1514.8
2015-Feb-25 15:33N 38°21' W 009°45'1514.9
2015-Feb-25 14:33N 38°06' W 009°41'1515.0
2015-Feb-25 13:33N 37°52' W 009°36'1515.0
2015-Feb-25 12:33N 37°37' W 009°32'21413.3
2015-Feb-24 20:24N 35°57' W 005°36'1214.3
2015-Feb-24 19:33N 36°00' W 005°21'1212.1
2015-Feb-24 18:33N 36°02' W 005°06'9 0.6
2015-Feb-24 03:07N 36°06' W 005°17'611.1
2015-Feb-24 02:33N 36°08' W 005°24'1 1.0
2015-Feb-24 01:26N 36°08' W 005°25'0 0.0
2015-Feb-24 00:32N 36°08' W 005°25'0 0.0
2015-Feb-23 23:32N 36°08' W 005°25'0 0.0
2015-Feb-23 22:32N 36°08' W 005°25'0 0.0
2015-Feb-23 21:23N 36°08' W 005°25'0 0.0
2015-Feb-23 20:29N 36°08' W 005°25'0 0.0
2015-Feb-23 19:32N 36°08' W 005°25'0 0.0
2015-Feb-23 18:32N 36°08' W 005°25'0 0.0
2015-Feb-23 17:29N 36°08' W 005°25'0 0.0
2015-Feb-23 16:32N 36°08' W 005°25'1 0.6
2015-Feb-23 15:33N 36°08' W 005°25'4 4.3
2015-Feb-23 14:33N 36°05' W 005°22'1010.1
2015-Feb-23 13:34N 35°57' W 005°30'  

Dump ship's entire track history